sensor_id;sensor_type;location;lat;lon;timestamp;P1;durP1;ratioP1;P2;durP2;ratioP2
11303;SDS011;5707;49.588;12.148;2023-09-19T00:01:14;4.63;;;4.32;;
11303;SDS011;5707;49.588;12.148;2023-09-19T00:03:40;3.90;;;3.45;;
11303;SDS011;5707;49.588;12.148;2023-09-19T00:06:06;3.92;;;3.72;;
11303;SDS011;5707;49.588;12.148;2023-09-19T00:08:33;4.10;;;3.85;;
11303;SDS011;5707;49.588;12.148;2023-09-19T00:10:59;4.53;;;4.18;;
11303;SDS011;5707;49.588;12.148;2023-09-19T00:13:29;4.03;;;3.72;;
11303;SDS011;5707;49.588;12.148;2023-09-19T00:15:55;5.22;;;4.20;;
11303;SDS011;5707;49.588;12.148;2023-09-19T00:18:24;5.30;;;4.22;;
11303;SDS011;5707;49.588;12.148;2023-09-19T00:20:57;4.25;;;3.95;;
11303;SDS011;5707;49.588;12.148;2023-09-19T00:23:23;4.03;;;3.47;;
11303;SDS011;5707;49.588;12.148;2023-09-19T00:25:49;4.40;;;4.10;;
11303;SDS011;5707;49.588;12.148;2023-09-19T00:28:16;4.38;;;3.72;;
11303;SDS011;5707;49.588;12.148;2023-09-19T00:30:43;3.80;;;3.58;;
11303;SDS011;5707;49.588;12.148;2023-09-19T00:33:09;3.72;;;3.42;;
11303;SDS011;5707;49.588;12.148;2023-09-19T00:35:36;3.55;;;3.25;;
11303;SDS011;5707;49.588;12.148;2023-09-19T00:38:02;3.97;;;3.63;;
11303;SDS011;5707;49.588;12.148;2023-09-19T00:40:28;3.33;;;3.05;;
11303;SDS011;5707;49.588;12.148;2023-09-19T00:42:57;3.35;;;3.10;;
11303;SDS011;5707;49.588;12.148;2023-09-19T00:45:26;3.70;;;3.13;;
11303;SDS011;5707;49.588;12.148;2023-09-19T00:47:53;3.80;;;3.47;;
11303;SDS011;5707;49.588;12.148;2023-09-19T00:50:20;3.05;;;2.85;;
11303;SDS011;5707;49.588;12.148;2023-09-19T00:52:48;2.30;;;2.15;;
11303;SDS011;5707;49.588;12.148;2023-09-19T00:55:17;3.08;;;2.80;;
11303;SDS011;5707;49.588;12.148;2023-09-19T00:57:45;2.78;;;2.03;;
11303;SDS011;5707;49.588;12.148;2023-09-19T01:00:12;3.00;;;2.47;;
11303;SDS011;5707;49.588;12.148;2023-09-19T01:02:43;3.08;;;2.50;;
11303;SDS011;5707;49.588;12.148;2023-09-19T01:05:09;2.70;;;2.50;;
11303;SDS011;5707;49.588;12.148;2023-09-19T01:07:35;2.38;;;2.17;;
11303;SDS011;5707;49.588;12.148;2023-09-19T01:10:05;2.60;;;2.40;;
11303;SDS011;5707;49.588;12.148;2023-09-19T01:12:53;2.22;;;2.03;;
11303;SDS011;5707;49.588;12.148;2023-09-19T01:18:13;2.33;;;2.20;;
11303;SDS011;5707;49.588;12.148;2023-09-19T01:20:53;3.58;;;2.22;;
11303;SDS011;5707;49.588;12.148;2023-09-19T01:32:14;3.42;;;1.83;;
11303;SDS011;5707;49.588;12.148;2023-09-19T01:37:21;2.28;;;2.10;;
11303;SDS011;5707;49.588;12.148;2023-09-19T01:39:55;2.90;;;1.98;;
11303;SDS011;5707;49.588;12.148;2023-09-19T01:48:19;3.72;;;1.48;;
11303;SDS011;5707;49.588;12.148;2023-09-19T01:51:01;1.98;;;1.77;;
11303;SDS011;5707;49.588;12.148;2023-09-19T01:53:35;2.50;;;1.88;;
11303;SDS011;5707;49.588;12.148;2023-09-19T01:56:08;1.77;;;1.65;;
11303;SDS011;5707;49.588;12.148;2023-09-19T01:58:45;2.25;;;1.45;;
11303;SDS011;5707;49.588;12.148;2023-09-19T02:01:15;2.03;;;1.83;;
11303;SDS011;5707;49.588;12.148;2023-09-19T02:03:43;1.73;;;1.63;;
11303;SDS011;5707;49.588;12.148;2023-09-19T02:06:17;2.05;;;1.45;;
11303;SDS011;5707;49.588;12.148;2023-09-19T02:08:44;1.50;;;1.40;;
11303;SDS011;5707;49.588;12.148;2023-09-19T02:11:13;1.58;;;1.48;;
11303;SDS011;5707;49.588;12.148;2023-09-19T02:13:39;4.30;;;1.83;;
11303;SDS011;5707;49.588;12.148;2023-09-19T02:16:05;1.88;;;1.58;;
11303;SDS011;5707;49.588;12.148;2023-09-19T02:18:32;2.83;;;1.50;;
11303;SDS011;5707;49.588;12.148;2023-09-19T02:21:00;4.53;;;1.63;;
11303;SDS011;5707;49.588;12.148;2023-09-19T02:23:29;2.45;;;2.03;;
11303;SDS011;5707;49.588;12.148;2023-09-19T02:25:55;3.72;;;1.60;;
11303;SDS011;5707;49.588;12.148;2023-09-19T02:28:30;1.88;;;1.63;;
11303;SDS011;5707;49.588;12.148;2023-09-19T02:30:57;1.63;;;1.52;;
11303;SDS011;5707;49.588;12.148;2023-09-19T02:33:25;2.22;;;1.60;;
11303;SDS011;5707;49.588;12.148;2023-09-19T02:35:54;4.30;;;1.67;;
11303;SDS011;5707;49.588;12.148;2023-09-19T02:38:23;1.98;;;1.33;;
11303;SDS011;5707;49.588;12.148;2023-09-19T02:40:50;2.20;;;1.48;;
11303;SDS011;5707;49.588;12.148;2023-09-19T02:43:17;1.50;;;1.40;;
11303;SDS011;5707;49.588;12.148;2023-09-19T02:45:44;1.80;;;1.50;;
11303;SDS011;5707;49.588;12.148;2023-09-19T02:48:11;3.00;;;1.67;;
11303;SDS011;5707;49.588;12.148;2023-09-19T02:50:37;2.05;;;1.50;;
11303;SDS011;5707;49.588;12.148;2023-09-19T02:53:04;2.47;;;1.52;;
11303;SDS011;5707;49.588;12.148;2023-09-19T02:55:29;1.67;;;1.58;;
11303;SDS011;5707;49.588;12.148;2023-09-19T02:57:56;4.15;;;1.30;;
11303;SDS011;5707;49.588;12.148;2023-09-19T03:00:22;4.32;;;1.58;;
11303;SDS011;5707;49.588;12.148;2023-09-19T03:02:49;1.88;;;1.38;;
11303;SDS011;5707;49.588;12.148;2023-09-19T03:05:19;1.65;;;1.40;;
11303;SDS011;5707;49.588;12.148;2023-09-19T03:07:46;1.23;;;1.13;;
11303;SDS011;5707;49.588;12.148;2023-09-19T03:10:15;1.35;;;1.05;;
11303;SDS011;5707;49.588;12.148;2023-09-19T03:12:42;1.33;;;1.20;;
11303;SDS011;5707;49.588;12.148;2023-09-19T03:15:08;3.70;;;1.40;;
11303;SDS011;5707;49.588;12.148;2023-09-19T03:17:34;1.40;;;1.10;;
11303;SDS011;5707;49.588;12.148;2023-09-19T03:20:01;1.33;;;0.93;;
11303;SDS011;5707;49.588;12.148;2023-09-19T03:22:28;2.72;;;1.30;;
11303;SDS011;5707;49.588;12.148;2023-09-19T03:24:53;1.67;;;1.10;;
11303;SDS011;5707;49.588;12.148;2023-09-19T03:27:19;1.77;;;0.98;;
11303;SDS011;5707;49.588;12.148;2023-09-19T03:29:46;2.80;;;1.20;;
11303;SDS011;5707;49.588;12.148;2023-09-19T03:32:12;2.17;;;1.20;;
11303;SDS011;5707;49.588;12.148;2023-09-19T03:34:38;1.48;;;1.10;;
11303;SDS011;5707;49.588;12.148;2023-09-19T03:37:08;1.63;;;1.17;;
11303;SDS011;5707;49.588;12.148;2023-09-19T03:39:34;2.25;;;1.05;;
11303;SDS011;5707;49.588;12.148;2023-09-19T03:42:00;1.60;;;1.08;;
11303;SDS011;5707;49.588;12.148;2023-09-19T03:44:26;1.90;;;1.35;;
11303;SDS011;5707;49.588;12.148;2023-09-19T03:46:52;1.05;;;0.73;;
11303;SDS011;5707;49.588;12.148;2023-09-19T03:49:17;1.00;;;0.90;;
11303;SDS011;5707;49.588;12.148;2023-09-19T03:51:44;1.27;;;1.10;;
11303;SDS011;5707;49.588;12.148;2023-09-19T03:54:09;1.45;;;0.90;;
11303;SDS011;5707;49.588;12.148;2023-09-19T03:56:35;1.27;;;1.10;;
11303;SDS011;5707;49.588;12.148;2023-09-19T03:59:00;1.00;;;0.98;;
11303;SDS011;5707;49.588;12.148;2023-09-19T04:01:26;1.70;;;0.80;;
11303;SDS011;5707;49.588;12.148;2023-09-19T04:03:52;3.88;;;0.85;;
11303;SDS011;5707;49.588;12.148;2023-09-19T04:06:18;1.83;;;1.00;;
11303;SDS011;5707;49.588;12.148;2023-09-19T04:08:44;2.38;;;1.00;;
11303;SDS011;5707;49.588;12.148;2023-09-19T04:11:11;1.95;;;0.80;;
11303;SDS011;5707;49.588;12.148;2023-09-19T04:13:37;1.73;;;0.80;;
11303;SDS011;5707;49.588;12.148;2023-09-19T04:16:03;2.00;;;1.00;;
11303;SDS011;5707;49.588;12.148;2023-09-19T04:18:29;1.73;;;0.90;;
11303;SDS011;5707;49.588;12.148;2023-09-19T04:20:57;2.72;;;0.70;;
11303;SDS011;5707;49.588;12.148;2023-09-19T04:23:23;1.92;;;1.10;;
11303;SDS011;5707;49.588;12.148;2023-09-19T04:25:49;1.17;;;1.00;;
11303;SDS011;5707;49.588;12.148;2023-09-19T04:28:15;1.65;;;0.82;;
11303;SDS011;5707;49.588;12.148;2023-09-19T04:30:41;1.25;;;0.80;;
11303;SDS011;5707;49.588;12.148;2023-09-19T04:33:06;1.75;;;1.00;;
11303;SDS011;5707;49.588;12.148;2023-09-19T04:35:32;2.58;;;1.00;;
11303;SDS011;5707;49.588;12.148;2023-09-19T04:37:59;1.38;;;0.70;;
11303;SDS011;5707;49.588;12.148;2023-09-19T04:40:25;2.63;;;0.98;;
11303;SDS011;5707;49.588;12.148;2023-09-19T04:42:55;1.10;;;1.00;;
11303;SDS011;5707;49.588;12.148;2023-09-19T04:45:27;1.58;;;0.90;;
11303;SDS011;5707;49.588;12.148;2023-09-19T04:47:53;0.57;;;0.57;;
11303;SDS011;5707;49.588;12.148;2023-09-19T04:50:19;1.67;;;0.95;;
11303;SDS011;5707;49.588;12.148;2023-09-19T04:52:46;1.70;;;1.15;;
11303;SDS011;5707;49.588;12.148;2023-09-19T04:55:16;2.10;;;0.70;;
11303;SDS011;5707;49.588;12.148;2023-09-19T04:57:48;1.25;;;0.70;;
11303;SDS011;5707;49.588;12.148;2023-09-19T05:00:16;1.38;;;0.98;;
11303;SDS011;5707;49.588;12.148;2023-09-19T05:02:45;2.10;;;0.85;;
11303;SDS011;5707;49.588;12.148;2023-09-19T05:05:11;3.97;;;0.98;;
11303;SDS011;5707;49.588;12.148;2023-09-19T05:07:40;1.65;;;0.90;;
11303;SDS011;5707;49.588;12.148;2023-09-19T05:10:07;1.08;;;1.00;;
11303;SDS011;5707;49.588;12.148;2023-09-19T05:12:34;4.03;;;1.10;;
11303;SDS011;5707;49.588;12.148;2023-09-19T05:15:00;1.10;;;0.80;;
11303;SDS011;5707;49.588;12.148;2023-09-19T05:17:27;2.05;;;0.70;;
11303;SDS011;5707;49.588;12.148;2023-09-19T05:19:53;1.33;;;0.90;;
11303;SDS011;5707;49.588;12.148;2023-09-19T05:22:18;0.98;;;0.80;;
11303;SDS011;5707;49.588;12.148;2023-09-19T05:24:44;3.63;;;1.08;;
11303;SDS011;5707;49.588;12.148;2023-09-19T05:27:13;1.20;;;1.10;;
11303;SDS011;5707;49.588;12.148;2023-09-19T05:29:41;1.00;;;0.95;;
11303;SDS011;5707;49.588;12.148;2023-09-19T05:32:10;1.85;;;1.05;;
11303;SDS011;5707;49.588;12.148;2023-09-19T05:34:36;1.92;;;0.90;;
11303;SDS011;5707;49.588;12.148;2023-09-19T05:37:03;1.77;;;0.70;;
11303;SDS011;5707;49.588;12.148;2023-09-19T05:39:30;2.05;;;0.90;;
11303;SDS011;5707;49.588;12.148;2023-09-19T05:41:55;1.23;;;1.10;;
11303;SDS011;5707;49.588;12.148;2023-09-19T05:44:22;1.00;;;1.00;;
11303;SDS011;5707;49.588;12.148;2023-09-19T05:46:48;2.03;;;1.15;;
11303;SDS011;5707;49.588;12.148;2023-09-19T05:49:13;2.97;;;1.00;;
11303;SDS011;5707;49.588;12.148;2023-09-19T05:51:40;2.25;;;0.80;;
11303;SDS011;5707;49.588;12.148;2023-09-19T05:54:05;2.88;;;1.00;;
11303;SDS011;5707;49.588;12.148;2023-09-19T05:56:31;1.00;;;0.82;;
11303;SDS011;5707;49.588;12.148;2023-09-19T05:58:56;1.35;;;0.85;;
11303;SDS011;5707;49.588;12.148;2023-09-19T06:01:23;1.35;;;0.70;;
11303;SDS011;5707;49.588;12.148;2023-09-19T06:03:48;1.88;;;0.98;;
11303;SDS011;5707;49.588;12.148;2023-09-19T06:06:14;1.45;;;0.77;;
11303;SDS011;5707;49.588;12.148;2023-09-19T06:08:39;2.05;;;1.20;;
11303;SDS011;5707;49.588;12.148;2023-09-19T06:11:05;1.20;;;1.10;;
11303;SDS011;5707;49.588;12.148;2023-09-19T06:13:32;7.45;;;3.45;;
11303;SDS011;5707;49.588;12.148;2023-09-19T06:15:58;2.55;;;1.23;;
11303;SDS011;5707;49.588;12.148;2023-09-19T06:18:25;2.63;;;1.20;;
11303;SDS011;5707;49.588;12.148;2023-09-19T06:20:51;1.70;;;0.90;;
11303;SDS011;5707;49.588;12.148;2023-09-19T06:23:17;2.45;;;0.90;;
11303;SDS011;5707;49.588;12.148;2023-09-19T06:25:45;2.22;;;1.20;;
11303;SDS011;5707;49.588;12.148;2023-09-19T06:28:10;1.58;;;0.80;;
11303;SDS011;5707;49.588;12.148;2023-09-19T06:30:41;1.80;;;1.23;;
11303;SDS011;5707;49.588;12.148;2023-09-19T06:33:07;3.20;;;1.00;;
11303;SDS011;5707;49.588;12.148;2023-09-19T06:35:33;1.38;;;1.08;;
11303;SDS011;5707;49.588;12.148;2023-09-19T06:38:01;1.75;;;0.98;;
11303;SDS011;5707;49.588;12.148;2023-09-19T06:40:28;2.20;;;1.10;;
11303;SDS011;5707;49.588;12.148;2023-09-19T06:42:56;1.75;;;1.30;;
11303;SDS011;5707;49.588;12.148;2023-09-19T06:45:22;7.75;;;3.42;;
11303;SDS011;5707;49.588;12.148;2023-09-19T06:47:48;2.70;;;1.50;;
11303;SDS011;5707;49.588;12.148;2023-09-19T06:50:15;1.35;;;1.00;;
11303;SDS011;5707;49.588;12.148;2023-09-19T06:52:47;1.58;;;0.80;;
11303;SDS011;5707;49.588;12.148;2023-09-19T06:55:15;2.70;;;1.15;;
11303;SDS011;5707;49.588;12.148;2023-09-19T06:57:41;1.05;;;0.88;;
11303;SDS011;5707;49.588;12.148;2023-09-19T07:00:08;2.60;;;0.95;;
11303;SDS011;5707;49.588;12.148;2023-09-19T07:02:40;1.75;;;1.02;;
11303;SDS011;5707;49.588;12.148;2023-09-19T07:05:06;2.28;;;0.90;;
11303;SDS011;5707;49.588;12.148;2023-09-19T07:07:32;1.80;;;0.90;;
11303;SDS011;5707;49.588;12.148;2023-09-19T07:10:00;1.30;;;1.20;;
11303;SDS011;5707;49.588;12.148;2023-09-19T07:12:26;3.03;;;0.90;;
11303;SDS011;5707;49.588;12.148;2023-09-19T07:14:51;1.25;;;0.75;;
11303;SDS011;5707;49.588;12.148;2023-09-19T07:17:17;0.68;;;0.68;;
11303;SDS011;5707;49.588;12.148;2023-09-19T07:19:44;1.55;;;0.90;;
11303;SDS011;5707;49.588;12.148;2023-09-19T07:22:10;1.35;;;0.90;;
11303;SDS011;5707;49.588;12.148;2023-09-19T07:24:35;0.80;;;0.80;;
11303;SDS011;5707;49.588;12.148;2023-09-19T07:27:02;0.73;;;0.70;;
11303;SDS011;5707;49.588;12.148;2023-09-19T07:29:28;2.45;;;0.90;;
11303;SDS011;5707;49.588;12.148;2023-09-19T07:31:53;3.58;;;0.60;;
11303;SDS011;5707;49.588;12.148;2023-09-19T07:34:19;0.57;;;0.57;;
11303;SDS011;5707;49.588;12.148;2023-09-19T07:36:47;2.13;;;0.77;;
11303;SDS011;5707;49.588;12.148;2023-09-19T07:39:13;0.95;;;0.77;;
11303;SDS011;5707;49.588;12.148;2023-09-19T07:41:39;1.95;;;1.10;;
11303;SDS011;5707;49.588;12.148;2023-09-19T07:44:04;2.47;;;1.00;;
11303;SDS011;5707;49.588;12.148;2023-09-19T07:46:30;1.65;;;0.90;;
11303;SDS011;5707;49.588;12.148;2023-09-19T07:48:56;1.42;;;0.70;;
11303;SDS011;5707;49.588;12.148;2023-09-19T07:51:22;1.75;;;1.02;;
11303;SDS011;5707;49.588;12.148;2023-09-19T07:53:48;1.27;;;0.93;;
11303;SDS011;5707;49.588;12.148;2023-09-19T07:56:14;3.15;;;0.90;;
11303;SDS011;5707;49.588;12.148;2023-09-19T07:58:40;0.93;;;0.77;;
11303;SDS011;5707;49.588;12.148;2023-09-19T08:01:09;1.70;;;0.80;;
11303;SDS011;5707;49.588;12.148;2023-09-19T08:03:35;0.75;;;0.60;;
11303;SDS011;5707;49.588;12.148;2023-09-19T08:06:06;1.70;;;0.85;;
11303;SDS011;5707;49.588;12.148;2023-09-19T08:08:32;0.82;;;0.68;;
11303;SDS011;5707;49.588;12.148;2023-09-19T08:11:05;1.52;;;0.60;;
11303;SDS011;5707;49.588;12.148;2023-09-19T08:13:37;2.67;;;0.80;;
11303;SDS011;5707;49.588;12.148;2023-09-19T08:16:11;1.50;;;0.55;;
11303;SDS011;5707;49.588;12.148;2023-09-19T08:18:37;1.20;;;0.75;;
11303;SDS011;5707;49.588;12.148;2023-09-19T08:21:05;0.55;;;0.55;;
11303;SDS011;5707;49.588;12.148;2023-09-19T08:23:32;0.60;;;0.60;;
11303;SDS011;5707;49.588;12.148;2023-09-19T08:25:58;1.30;;;0.85;;
11303;SDS011;5707;49.588;12.148;2023-09-19T08:28:28;1.67;;;0.90;;
11303;SDS011;5707;49.588;12.148;2023-09-19T08:30:54;3.08;;;1.00;;
11303;SDS011;5707;49.588;12.148;2023-09-19T08:33:20;1.58;;;0.60;;
11303;SDS011;5707;49.588;12.148;2023-09-19T08:35:46;1.17;;;0.70;;
11303;SDS011;5707;49.588;12.148;2023-09-19T08:38:11;1.30;;;0.93;;
11303;SDS011;5707;49.588;12.148;2023-09-19T08:40:39;1.17;;;0.85;;
11303;SDS011;5707;49.588;12.148;2023-09-19T08:43:06;0.60;;;0.57;;
11303;SDS011;5707;49.588;12.148;2023-09-19T08:45:32;0.73;;;0.68;;
11303;SDS011;5707;49.588;12.148;2023-09-19T08:51:06;2.50;;;0.93;;
11303;SDS011;5707;49.588;12.148;2023-09-19T08:56:11;1.17;;;0.93;;
11303;SDS011;5707;49.588;12.148;2023-09-19T08:58:49;1.73;;;0.70;;
11303;SDS011;5707;49.588;12.148;2023-09-19T09:01:18;0.82;;;0.57;;
11303;SDS011;5707;49.588;12.148;2023-09-19T09:03:50;0.90;;;0.80;;
11303;SDS011;5707;49.588;12.148;2023-09-19T09:06:17;0.95;;;0.90;;
11303;SDS011;5707;49.588;12.148;2023-09-19T09:08:48;1.05;;;0.98;;
11303;SDS011;5707;49.588;12.148;2023-09-19T09:11:16;1.23;;;0.80;;
11303;SDS011;5707;49.588;12.148;2023-09-19T09:13:43;2.03;;;0.70;;
11303;SDS011;5707;49.588;12.148;2023-09-19T09:16:09;0.60;;;0.60;;
11303;SDS011;5707;49.588;12.148;2023-09-19T09:18:35;1.50;;;0.65;;
11303;SDS011;5707;49.588;12.148;2023-09-19T09:21:01;0.68;;;0.65;;
11303;SDS011;5707;49.588;12.148;2023-09-19T09:23:29;1.27;;;0.70;;
11303;SDS011;5707;49.588;12.148;2023-09-19T09:25:57;1.00;;;0.68;;
11303;SDS011;5707;49.588;12.148;2023-09-19T09:28:27;0.70;;;0.70;;
11303;SDS011;5707;49.588;12.148;2023-09-19T09:30:55;0.60;;;0.60;;
11303;SDS011;5707;49.588;12.148;2023-09-19T09:33:23;0.73;;;0.73;;
11303;SDS011;5707;49.588;12.148;2023-09-19T09:35:52;0.40;;;0.40;;
11303;SDS011;5707;49.588;12.148;2023-09-19T09:38:22;1.52;;;0.70;;
11303;SDS011;5707;49.588;12.148;2023-09-19T09:40:52;1.40;;;0.98;;
11303;SDS011;5707;49.588;12.148;2023-09-19T09:43:42;0.88;;;0.60;;
11303;SDS011;5707;49.588;12.148;2023-09-19T09:46:16;0.70;;;0.50;;
11303;SDS011;5707;49.588;12.148;2023-09-19T09:48:47;1.88;;;0.45;;
11303;SDS011;5707;49.588;12.148;2023-09-19T09:51:39;1.00;;;0.75;;
11303;SDS011;5707;49.588;12.148;2023-09-19T09:54:24;1.23;;;0.60;;
11303;SDS011;5707;49.588;12.148;2023-09-19T09:57:11;0.70;;;0.60;;
11303;SDS011;5707;49.588;12.148;2023-09-19T09:59:46;3.03;;;0.50;;
11303;SDS011;5707;49.588;12.148;2023-09-19T10:02:15;0.50;;;0.50;;
11303;SDS011;5707;49.588;12.148;2023-09-19T10:04:54;0.40;;;0.40;;
11303;SDS011;5707;49.588;12.148;2023-09-19T10:07:28;1.33;;;0.60;;
11303;SDS011;5707;49.588;12.148;2023-09-19T10:10:01;0.50;;;0.50;;
11303;SDS011;5707;49.588;12.148;2023-09-19T10:12:42;1.50;;;0.57;;
11303;SDS011;5707;49.588;12.148;2023-09-19T10:15:11;0.85;;;0.50;;
11303;SDS011;5707;49.588;12.148;2023-09-19T10:17:40;0.47;;;0.40;;
11303;SDS011;5707;49.588;12.148;2023-09-19T10:20:14;0.80;;;0.60;;
11303;SDS011;5707;49.588;12.148;2023-09-19T10:22:58;0.45;;;0.45;;
11303;SDS011;5707;49.588;12.148;2023-09-19T10:25:29;0.43;;;0.30;;
11303;SDS011;5707;49.588;12.148;2023-09-19T10:27:56;0.65;;;0.60;;
11303;SDS011;5707;49.588;12.148;2023-09-19T10:30:24;0.80;;;0.60;;
11303;SDS011;5707;49.588;12.148;2023-09-19T10:32:54;1.45;;;0.70;;
11303;SDS011;5707;49.588;12.148;2023-09-19T10:35:29;1.13;;;0.60;;
11303;SDS011;5707;49.588;12.148;2023-09-19T10:37:59;1.58;;;0.60;;
11303;SDS011;5707;49.588;12.148;2023-09-19T10:40:29;1.85;;;0.55;;
11303;SDS011;5707;49.588;12.148;2023-09-19T10:43:01;0.98;;;0.50;;
11303;SDS011;5707;49.588;12.148;2023-09-19T10:45:30;2.28;;;0.65;;
11303;SDS011;5707;49.588;12.148;2023-09-19T10:47:57;0.40;;;0.30;;
11303;SDS011;5707;49.588;12.148;2023-09-19T10:50:23;0.55;;;0.45;;
11303;SDS011;5707;49.588;12.148;2023-09-19T10:52:50;0.63;;;0.50;;
11303;SDS011;5707;49.588;12.148;2023-09-19T10:55:24;2.30;;;0.88;;
11303;SDS011;5707;49.588;12.148;2023-09-19T10:57:53;0.93;;;0.57;;
11303;SDS011;5707;49.588;12.148;2023-09-19T11:00:19;0.88;;;0.68;;
11303;SDS011;5707;49.588;12.148;2023-09-19T11:05:40;0.50;;;0.50;;
11303;SDS011;5707;49.588;12.148;2023-09-19T11:08:10;0.65;;;0.60;;
11303;SDS011;5707;49.588;12.148;2023-09-19T11:13:28;1.13;;;0.82;;
11303;SDS011;5707;49.588;12.148;2023-09-19T11:26:57;0.60;;;0.57;;
11303;SDS011;5707;49.588;12.148;2023-09-19T11:29:35;0.73;;;0.60;;
11303;SDS011;5707;49.588;12.148;2023-09-19T11:32:02;1.13;;;0.70;;
11303;SDS011;5707;49.588;12.148;2023-09-19T11:34:38;1.60;;;0.85;;
11303;SDS011;5707;49.588;12.148;2023-09-19T11:39:36;1.35;;;0.82;;
11303;SDS011;5707;49.588;12.148;2023-09-19T11:42:25;0.55;;;0.52;;
11303;SDS011;5707;49.588;12.148;2023-09-19T11:45:42;2.78;;;0.80;;
11303;SDS011;5707;49.588;12.148;2023-09-19T11:48:23;0.50;;;0.50;;
11303;SDS011;5707;49.588;12.148;2023-09-19T11:50:52;1.15;;;1.02;;
11303;SDS011;5707;49.588;12.148;2023-09-19T11:53:18;1.15;;;0.80;;
11303;SDS011;5707;49.588;12.148;2023-09-19T11:55:45;0.60;;;0.60;;
11303;SDS011;5707;49.588;12.148;2023-09-19T11:58:20;1.02;;;0.70;;
11303;SDS011;5707;49.588;12.148;2023-09-19T12:00:47;0.70;;;0.70;;
11303;SDS011;5707;49.588;12.148;2023-09-19T12:03:23;0.77;;;0.68;;
11303;SDS011;5707;49.588;12.148;2023-09-19T12:05:55;0.70;;;0.70;;
11303;SDS011;5707;49.588;12.148;2023-09-19T12:08:22;1.92;;;0.90;;
11303;SDS011;5707;49.588;12.148;2023-09-19T12:10:48;2.90;;;0.70;;
11303;SDS011;5707;49.588;12.148;2023-09-19T12:13:19;1.55;;;0.65;;
11303;SDS011;5707;49.588;12.148;2023-09-19T12:15:45;0.77;;;0.75;;
11303;SDS011;5707;49.588;12.148;2023-09-19T12:18:31;2.25;;;0.70;;
11303;SDS011;5707;49.588;12.148;2023-09-19T12:20:57;0.75;;;0.70;;
11303;SDS011;5707;49.588;12.148;2023-09-19T12:23:23;4.28;;;0.90;;
11303;SDS011;5707;49.588;12.148;2023-09-19T12:25:50;0.63;;;0.63;;
11303;SDS011;5707;49.588;12.148;2023-09-19T12:28:18;1.38;;;1.00;;
11303;SDS011;5707;49.588;12.148;2023-09-19T12:30:47;0.80;;;0.80;;
11303;SDS011;5707;49.588;12.148;2023-09-19T12:33:19;0.70;;;0.70;;
11303;SDS011;5707;49.588;12.148;2023-09-19T12:35:46;2.88;;;0.90;;
11303;SDS011;5707;49.588;12.148;2023-09-19T12:38:22;1.40;;;0.95;;
11303;SDS011;5707;49.588;12.148;2023-09-19T12:40:49;1.02;;;0.90;;
11303;SDS011;5707;49.588;12.148;2023-09-19T12:43:16;0.75;;;0.60;;
11303;SDS011;5707;49.588;12.148;2023-09-19T12:45:43;0.82;;;0.65;;
11303;SDS011;5707;49.588;12.148;2023-09-19T12:51:06;1.70;;;0.80;;
11303;SDS011;5707;49.588;12.148;2023-09-19T12:53:37;1.58;;;0.77;;
11303;SDS011;5707;49.588;12.148;2023-09-19T12:56:09;1.80;;;0.80;;
11303;SDS011;5707;49.588;12.148;2023-09-19T12:58:51;1.83;;;0.82;;
11303;SDS011;5707;49.588;12.148;2023-09-19T13:01:20;2.00;;;0.95;;
11303;SDS011;5707;49.588;12.148;2023-09-19T13:06:45;0.93;;;0.70;;
11303;SDS011;5707;49.588;12.148;2023-09-19T13:09:21;0.75;;;0.60;;
11303;SDS011;5707;49.588;12.148;2023-09-19T13:11:47;0.80;;;0.80;;
11303;SDS011;5707;49.588;12.148;2023-09-19T13:19:36;1.20;;;0.60;;
11303;SDS011;5707;49.588;12.148;2023-09-19T13:22:04;0.45;;;0.45;;
11303;SDS011;5707;49.588;12.148;2023-09-19T13:24:33;2.35;;;0.60;;
11303;SDS011;5707;49.588;12.148;2023-09-19T13:27:01;4.38;;;0.45;;
11303;SDS011;5707;49.588;12.148;2023-09-19T13:29:28;1.95;;;0.60;;
11303;SDS011;5707;49.588;12.148;2023-09-19T13:31:54;1.13;;;0.80;;
11303;SDS011;5707;49.588;12.148;2023-09-19T13:34:19;0.90;;;0.68;;
11303;SDS011;5707;49.588;12.148;2023-09-19T13:36:45;0.80;;;0.70;;
11303;SDS011;5707;49.588;12.148;2023-09-19T13:39:15;1.38;;;0.73;;
11303;SDS011;5707;49.588;12.148;2023-09-19T13:41:41;1.15;;;0.60;;
11303;SDS011;5707;49.588;12.148;2023-09-19T13:44:09;3.10;;;0.68;;
11303;SDS011;5707;49.588;12.148;2023-09-19T13:46:37;1.23;;;0.88;;
11303;SDS011;5707;49.588;12.148;2023-09-19T13:49:03;0.85;;;0.60;;
11303;SDS011;5707;49.588;12.148;2023-09-19T13:51:29;2.50;;;0.60;;
11303;SDS011;5707;49.588;12.148;2023-09-19T13:53:57;1.40;;;0.57;;
11303;SDS011;5707;49.588;12.148;2023-09-19T13:56:24;1.13;;;0.77;;
11303;SDS011;5707;49.588;12.148;2023-09-19T13:58:53;1.45;;;0.80;;
11303;SDS011;5707;49.588;12.148;2023-09-19T14:01:21;0.82;;;0.63;;
11303;SDS011;5707;49.588;12.148;2023-09-19T14:03:47;4.10;;;0.80;;
11303;SDS011;5707;49.588;12.148;2023-09-19T14:06:15;0.68;;;0.65;;
11303;SDS011;5707;49.588;12.148;2023-09-19T14:08:41;0.77;;;0.68;;
11303;SDS011;5707;49.588;12.148;2023-09-19T14:11:08;0.60;;;0.60;;
11303;SDS011;5707;49.588;12.148;2023-09-19T14:13:34;1.02;;;0.63;;
11303;SDS011;5707;49.588;12.148;2023-09-19T14:16:03;1.88;;;0.70;;
11303;SDS011;5707;49.588;12.148;2023-09-19T14:18:30;1.05;;;0.77;;
11303;SDS011;5707;49.588;12.148;2023-09-19T14:20:56;0.70;;;0.68;;
11303;SDS011;5707;49.588;12.148;2023-09-19T14:23:22;2.42;;;0.60;;
11303;SDS011;5707;49.588;12.148;2023-09-19T14:25:48;0.88;;;0.63;;
11303;SDS011;5707;49.588;12.148;2023-09-19T14:28:15;0.90;;;0.63;;
11303;SDS011;5707;49.588;12.148;2023-09-19T14:30:41;2.15;;;0.60;;
11303;SDS011;5707;49.588;12.148;2023-09-19T14:33:06;1.75;;;0.80;;
11303;SDS011;5707;49.588;12.148;2023-09-19T14:35:32;3.15;;;1.00;;
11303;SDS011;5707;49.588;12.148;2023-09-19T14:37:58;1.42;;;0.80;;
11303;SDS011;5707;49.588;12.148;2023-09-19T14:40:23;0.52;;;0.50;;
11303;SDS011;5707;49.588;12.148;2023-09-19T14:42:50;1.45;;;0.95;;
11303;SDS011;5707;49.588;12.148;2023-09-19T14:45:16;0.85;;;0.75;;
11303;SDS011;5707;49.588;12.148;2023-09-19T14:47:43;0.98;;;0.60;;
11303;SDS011;5707;49.588;12.148;2023-09-19T14:50:10;1.05;;;0.80;;
11303;SDS011;5707;49.588;12.148;2023-09-19T14:52:37;1.05;;;0.80;;
11303;SDS011;5707;49.588;12.148;2023-09-19T14:55:04;1.20;;;0.73;;
11303;SDS011;5707;49.588;12.148;2023-09-19T14:57:31;1.23;;;0.70;;
11303;SDS011;5707;49.588;12.148;2023-09-19T14:59:57;2.17;;;0.80;;
11303;SDS011;5707;49.588;12.148;2023-09-19T15:02:23;1.42;;;0.82;;
11303;SDS011;5707;49.588;12.148;2023-09-19T15:04:48;1.73;;;1.00;;
11303;SDS011;5707;49.588;12.148;2023-09-19T15:07:15;3.78;;;1.13;;
11303;SDS011;5707;49.588;12.148;2023-09-19T15:09:42;1.00;;;0.70;;
11303;SDS011;5707;49.588;12.148;2023-09-19T15:12:08;2.47;;;0.77;;
11303;SDS011;5707;49.588;12.148;2023-09-19T15:14:36;2.00;;;0.90;;
11303;SDS011;5707;49.588;12.148;2023-09-19T15:17:02;0.73;;;0.52;;
11303;SDS011;5707;49.588;12.148;2023-09-19T15:19:29;1.55;;;0.80;;
11303;SDS011;5707;49.588;12.148;2023-09-19T15:21:55;1.30;;;0.73;;
11303;SDS011;5707;49.588;12.148;2023-09-19T15:24:22;1.42;;;0.60;;
11303;SDS011;5707;49.588;12.148;2023-09-19T15:26:48;2.08;;;0.77;;
11303;SDS011;5707;49.588;12.148;2023-09-19T15:29:15;0.55;;;0.55;;
11303;SDS011;5707;49.588;12.148;2023-09-19T15:31:41;1.13;;;0.60;;
11303;SDS011;5707;49.588;12.148;2023-09-19T15:34:06;1.48;;;0.70;;
11303;SDS011;5707;49.588;12.148;2023-09-19T15:36:32;1.13;;;0.70;;
11303;SDS011;5707;49.588;12.148;2023-09-19T15:38:59;0.88;;;0.75;;
11303;SDS011;5707;49.588;12.148;2023-09-19T15:41:26;0.77;;;0.50;;
11303;SDS011;5707;49.588;12.148;2023-09-19T15:43:56;1.25;;;0.73;;
11303;SDS011;5707;49.588;12.148;2023-09-19T15:46:24;1.13;;;0.80;;
11303;SDS011;5707;49.588;12.148;2023-09-19T15:48:52;1.95;;;0.70;;
11303;SDS011;5707;49.588;12.148;2023-09-19T15:51:21;1.67;;;0.80;;